الصفحة الرئيسية
METAR-TAF:

METAR-TAF

مطار :

Safford, أريزونا, الولايات المتحدة

دائرة عرض: 32-51-26N, خط طول: 109-38-08W, ارتفاع: 968 متر

مراقبة الطقس الحالي

تاريخ ووقت الإصدار 49 دقيقة قبل الساعة 07:51UTC
ريح 9 عقدة من الشرق/الجنوب الشرقي
درجة الحرارة 18°درجة مئوية
الرطوبة 32%
ضغط 1016 hPa
الرؤية: 16.1 كم
غيوم مفككة على ارتفاع 10000 قدم

METAR: KSAD 210751Z AUTO 11009KT 10SM BKN100 18/01 A2999 RMK AO2 SLP113 T01830011 $

زمن: 01:40 (08:40 UTC)


TAF: مفقودة

أرصاد الطقس والتوقعات من أكثر من 4000 مطار (تقارير الطقس للمطار METAR والتنبؤ بالطقس بالمطارTAF).

المحطات المتاحة هي النقط الصفراء والحمراء على الخريطة.

حرك المؤشر فوق النقطة لمعرفة اسم المحطة.

ثم انقر لمعرفة أرصاد وتوقعات الطقس.

لتغيير الخارطة: اضغط على الأزرار الخضراء مع رمز الصليب الأسود للتكبير. على الزر الأخضر مع شرطة للتصغير، أو على الأسهم الخضراء للخرائط المجاورة.


METAR-TAF: